sensor_id;sensor_type;location;lat;lon;timestamp;pressure;altitude;pressure_sealevel;temperature;humidity
15634;BME280;14654;48.898;8.308;2023-07-02T00:00:33;99705.53;;;17.88;100.00
15634;BME280;14654;48.898;8.308;2023-07-02T00:03:00;99704.63;;;17.89;100.00
15634;BME280;14654;48.898;8.308;2023-07-02T00:05:26;99703.72;;;17.90;100.00
15634;BME280;14654;48.898;8.308;2023-07-02T00:07:51;99695.69;;;17.93;100.00
15634;BME280;14654;48.898;8.308;2023-07-02T00:10:16;99697.38;;;17.94;100.00
15634;BME280;14654;48.898;8.308;2023-07-02T00:12:42;99700.78;;;17.96;100.00
15634;BME280;14654;48.898;8.308;2023-07-02T00:15:09;99707.78;;;17.96;100.00
15634;BME280;14654;48.898;8.308;2023-07-02T00:17:35;99705.16;;;17.96;100.00
15634;BME280;14654;48.898;8.308;2023-07-02T00:20:06;99706.00;;;17.96;100.00
15634;BME280;14654;48.898;8.308;2023-07-02T00:22:31;99707.78;;;17.96;100.00
15634;BME280;14654;48.898;8.308;2023-07-02T00:25:01;99709.53;;;17.95;100.00
15634;BME280;14654;48.898;8.308;2023-07-02T00:27:26;99711.38;;;17.93;100.00
15634;BME280;14654;48.898;8.308;2023-07-02T00:29:52;99706.16;;;17.93;100.00
15634;BME280;14654;48.898;8.308;2023-07-02T00:32:17;99711.38;;;17.93;100.00
15634;BME280;14654;48.898;8.308;2023-07-02T00:34:42;99714.09;;;17.92;100.00
15634;BME280;14654;48.898;8.308;2023-07-02T00:37:08;99714.00;;;17.93;100.00
15634;BME280;14654;48.898;8.308;2023-07-02T00:39:33;99708.94;;;17.90;100.00
15634;BME280;14654;48.898;8.308;2023-07-02T00:42:02;99713.25;;;17.91;100.00
15634;BME280;14654;48.898;8.308;2023-07-02T00:44:28;99709.78;;;17.91;100.00
15634;BME280;14654;48.898;8.308;2023-07-02T00:46:53;99709.78;;;17.91;100.00
15634;BME280;14654;48.898;8.308;2023-07-02T00:49:18;99705.31;;;17.93;100.00
15634;BME280;14654;48.898;8.308;2023-07-02T00:51:44;99701.78;;;17.94;100.00
15634;BME280;14654;48.898;8.308;2023-07-02T00:54:09;99711.25;;;17.96;100.00
15634;BME280;14654;48.898;8.308;2023-07-02T00:56:35;99704.25;;;17.97;100.00
15634;BME280;14654;48.898;8.308;2023-07-02T00:59:00;99715.59;;;17.97;100.00
15634;BME280;14654;48.898;8.308;2023-07-02T01:01:27;99711.22;;;17.98;100.00
15634;BME280;14654;48.898;8.308;2023-07-02T01:04:04;99718.91;;;18.01;100.00
15634;BME280;14654;48.898;8.308;2023-07-02T01:06:35;99712.75;;;18.02;100.00
15634;BME280;14654;48.898;8.308;2023-07-02T01:09:04;99714.44;;;18.03;100.00
15634;BME280;14654;48.898;8.308;2023-07-02T01:11:33;99715.31;;;18.04;100.00
15634;BME280;14654;48.898;8.308;2023-07-02T01:14:04;99721.38;;;18.04;100.00
15634;BME280;14654;48.898;8.308;2023-07-02T01:16:31;99726.59;;;18.04;100.00
15634;BME280;14654;48.898;8.308;2023-07-02T01:18:58;99717.97;;;18.02;100.00
15634;BME280;14654;48.898;8.308;2023-07-02T01:21:28;99722.38;;;18.02;100.00
15634;BME280;14654;48.898;8.308;2023-07-02T01:23:54;99719.75;;;18.02;100.00
15634;BME280;14654;48.898;8.308;2023-07-02T01:26:19;99720.69;;;18.01;100.00
15634;BME280;14654;48.898;8.308;2023-07-02T01:28:45;99724.13;;;18.01;100.00
15634;BME280;14654;48.898;8.308;2023-07-02T01:31:10;99720.78;;;17.99;100.00
15634;BME280;14654;48.898;8.308;2023-07-02T01:33:36;99726.00;;;17.99;100.00
15634;BME280;14654;48.898;8.308;2023-07-02T01:36:01;99719.91;;;17.98;100.00
15634;BME280;14654;48.898;8.308;2023-07-02T01:38:26;99725.19;;;17.97;100.00
15634;BME280;14654;48.898;8.308;2023-07-02T01:40:53;99722.63;;;17.95;100.00
15634;BME280;14654;48.898;8.308;2023-07-02T01:43:18;99727.25;;;17.90;100.00
15634;BME280;14654;48.898;8.308;2023-07-02T01:45:43;99731.72;;;17.88;100.00
15634;BME280;14654;48.898;8.308;2023-07-02T01:48:09;99728.25;;;17.88;100.00
15634;BME280;14654;48.898;8.308;2023-07-02T01:50:34;99735.25;;;17.87;100.00
15634;BME280;14654;48.898;8.308;2023-07-02T01:52:59;99733.56;;;17.86;100.00
15634;BME280;14654;48.898;8.308;2023-07-02T01:55:24;99738.03;;;17.84;100.00
15634;BME280;14654;48.898;8.308;2023-07-02T01:57:50;99738.16;;;17.81;100.00
15634;BME280;14654;48.898;8.308;2023-07-02T02:00:16;99739.03;;;17.81;100.00
15634;BME280;14654;48.898;8.308;2023-07-02T02:02:42;99741.63;;;17.81;100.00
15634;BME280;14654;48.898;8.308;2023-07-02T02:05:08;99751.25;;;17.81;100.00
15634;BME280;14654;48.898;8.308;2023-07-02T02:07:35;99742.63;;;17.79;100.00
15634;BME280;14654;48.898;8.308;2023-07-02T02:10:02;99745.31;;;17.77;100.00
15634;BME280;14654;48.898;8.308;2023-07-02T02:12:27;99753.16;;;17.77;100.00
15634;BME280;14654;48.898;8.308;2023-07-02T02:14:53;99751.56;;;17.75;100.00
15634;BME280;14654;48.898;8.308;2023-07-02T02:17:19;99746.38;;;17.73;100.00
15634;BME280;14654;48.898;8.308;2023-07-02T02:19:44;99748.16;;;17.73;100.00
15634;BME280;14654;48.898;8.308;2023-07-02T02:22:10;99752.63;;;17.71;100.00
15634;BME280;14654;48.898;8.308;2023-07-02T02:24:35;99752.75;;;17.67;100.00
15634;BME280;14654;48.898;8.308;2023-07-02T02:27:00;99754.59;;;17.65;100.00
15634;BME280;14654;48.898;8.308;2023-07-02T02:29:26;99759.81;;;17.65;100.00
15634;BME280;14654;48.898;8.308;2023-07-02T02:31:51;99760.75;;;17.64;100.00
15634;BME280;14654;48.898;8.308;2023-07-02T02:34:16;99763.34;;;17.64;100.00
15634;BME280;14654;48.898;8.308;2023-07-02T02:36:42;99752.88;;;17.64;100.00
15634;BME280;14654;48.898;8.308;2023-07-02T02:39:07;99758.91;;;17.66;100.00
15634;BME280;14654;48.898;8.308;2023-07-02T02:41:32;99753.66;;;17.66;100.00
15634;BME280;14654;48.898;8.308;2023-07-02T02:43:58;99761.66;;;17.63;100.00
15634;BME280;14654;48.898;8.308;2023-07-02T02:46:23;99761.03;;;17.58;100.00
15634;BME280;14654;48.898;8.308;2023-07-02T02:48:49;99762.94;;;17.55;100.00
15634;BME280;14654;48.898;8.308;2023-07-02T02:51:15;99759.69;;;17.49;100.00
15634;BME280;14654;48.898;8.308;2023-07-02T02:53:40;99756.44;;;17.44;100.00
15634;BME280;14654;48.898;8.308;2023-07-02T02:56:06;99753.25;;;17.37;100.00
15634;BME280;14654;48.898;8.308;2023-07-02T02:58:31;99758.63;;;17.34;100.00
15634;BME280;14654;48.898;8.308;2023-07-02T03:00:56;99760.47;;;17.32;100.00
15634;BME280;14654;48.898;8.308;2023-07-02T03:03:22;99752.78;;;17.29;100.00
15634;BME280;14654;48.898;8.308;2023-07-02T03:05:49;99753.69;;;17.28;100.00
15634;BME280;14654;48.898;8.308;2023-07-02T03:08:14;99759.84;;;17.27;100.00
15634;BME280;14654;48.898;8.308;2023-07-02T03:10:40;99765.06;;;17.27;100.00
15634;BME280;14654;48.898;8.308;2023-07-02T03:13:05;99766.81;;;17.27;100.00
15634;BME280;14654;48.898;8.308;2023-07-02T03:15:30;99770.34;;;17.26;100.00
15634;BME280;14654;48.898;8.308;2023-07-02T03:17:56;99769.50;;;17.25;100.00
15634;BME280;14654;48.898;8.308;2023-07-02T03:20:21;99780.81;;;17.26;100.00
15634;BME280;14654;48.898;8.308;2023-07-02T03:22:47;99789.56;;;17.25;100.00
15634;BME280;14654;48.898;8.308;2023-07-02T03:25:12;99785.19;;;17.25;100.00
15634;BME280;14654;48.898;8.308;2023-07-02T03:27:37;99790.56;;;17.22;100.00
15634;BME280;14654;48.898;8.308;2023-07-02T03:30:03;99786.25;;;17.21;100.00
15634;BME280;14654;48.898;8.308;2023-07-02T03:32:29;99793.31;;;17.19;100.00
15634;BME280;14654;48.898;8.308;2023-07-02T03:34:54;99790.78;;;17.17;100.00
15634;BME280;14654;48.898;8.308;2023-07-02T03:37:19;99793.47;;;17.16;100.00
15634;BME280;14654;48.898;8.308;2023-07-02T03:39:45;99798.88;;;17.11;100.00
15634;BME280;14654;48.898;8.308;2023-07-02T03:42:10;99794.72;;;17.07;100.00
15634;BME280;14654;48.898;8.308;2023-07-02T03:44:35;99802.69;;;17.04;100.00
15634;BME280;14654;48.898;8.308;2023-07-02T03:47:01;99797.59;;;17.01;100.00
15634;BME280;14654;48.898;8.308;2023-07-02T03:49:26;99801.13;;;17.00;100.00
15634;BME280;14654;48.898;8.308;2023-07-02T03:51:51;99800.34;;;16.98;100.00
15634;BME280;14654;48.898;8.308;2023-07-02T03:54:17;99810.03;;;16.94;100.00
15634;BME280;14654;48.898;8.308;2023-07-02T03:56:43;99810.97;;;16.93;100.00
15634;BME280;14654;48.898;8.308;2023-07-02T03:59:08;99802.28;;;16.92;100.00
15634;BME280;14654;48.898;8.308;2023-07-02T04:01:33;99817.97;;;16.92;100.00
15634;BME280;14654;48.898;8.308;2023-07-02T04:03:59;99817.00;;;16.95;100.00
15634;BME280;14654;48.898;8.308;2023-07-02T04:06:24;99821.19;;;16.99;100.00
15634;BME280;14654;48.898;8.308;2023-07-02T04:08:50;99828.88;;;17.02;100.00
15634;BME280;14654;48.898;8.308;2023-07-02T04:11:15;99830.47;;;17.06;100.00
15634;BME280;14654;48.898;8.308;2023-07-02T04:13:40;99828.63;;;17.09;100.00
15634;BME280;14654;48.898;8.308;2023-07-02T04:16:06;99825.94;;;17.10;100.00
15634;BME280;14654;48.898;8.308;2023-07-02T04:18:32;99837.19;;;17.12;100.00
15634;BME280;14654;48.898;8.308;2023-07-02T04:20:57;99839.75;;;17.14;100.00
15634;BME280;14654;48.898;8.308;2023-07-02T04:23:23;99841.50;;;17.13;100.00
15634;BME280;14654;48.898;8.308;2023-07-02T04:25:48;99849.34;;;17.13;100.00
15634;BME280;14654;48.898;8.308;2023-07-02T04:28:14;99850.19;;;17.14;100.00
15634;BME280;14654;48.898;8.308;2023-07-02T04:30:39;99858.03;;;17.14;100.00
15634;BME280;14654;48.898;8.308;2023-07-02T04:33:05;99852.75;;;17.15;100.00
15634;BME280;14654;48.898;8.308;2023-07-02T04:35:32;99852.47;;;17.21;100.00
15634;BME280;14654;48.898;8.308;2023-07-02T04:37:59;99857.38;;;17.29;100.00
15634;BME280;14654;48.898;8.308;2023-07-02T04:40:24;99859.59;;;17.39;100.00
15634;BME280;14654;48.898;8.308;2023-07-02T04:42:50;99860.50;;;17.57;100.00
15634;BME280;14654;48.898;8.308;2023-07-02T04:45:22;99854.25;;;17.80;100.00
15634;BME280;14654;48.898;8.308;2023-07-02T04:47:48;99857.75;;;18.00;100.00
15634;BME280;14654;48.898;8.308;2023-07-02T04:50:13;99865.31;;;18.06;100.00
15634;BME280;14654;48.898;8.308;2023-07-02T04:52:39;99866.16;;;18.06;100.00
15634;BME280;14654;48.898;8.308;2023-07-02T04:55:05;99867.03;;;18.07;100.00
15634;BME280;14654;48.898;8.308;2023-07-02T04:57:30;99868.69;;;18.08;100.00
15634;BME280;14654;48.898;8.308;2023-07-02T04:59:57;99863.63;;;18.05;100.00
15634;BME280;14654;48.898;8.308;2023-07-02T05:02:22;99866.38;;;18.02;100.00
15634;BME280;14654;48.898;8.308;2023-07-02T05:04:47;99876.91;;;18.00;100.00
15634;BME280;14654;48.898;8.308;2023-07-02T05:07:13;99875.22;;;17.99;100.00
15634;BME280;14654;48.898;8.308;2023-07-02T05:09:38;99880.47;;;17.99;100.00
15634;BME280;14654;48.898;8.308;2023-07-02T05:12:04;99880.38;;;18.01;100.00
15634;BME280;14654;48.898;8.308;2023-07-02T05:14:29;99886.31;;;18.04;100.00
15634;BME280;14654;48.898;8.308;2023-07-02T05:16:54;99886.88;;;18.11;100.00
15634;BME280;14654;48.898;8.308;2023-07-02T05:19:20;99888.31;;;18.18;100.00
15634;BME280;14654;48.898;8.308;2023-07-02T05:21:45;99894.88;;;18.27;100.00
15634;BME280;14654;48.898;8.308;2023-07-02T05:24:10;99889.19;;;18.36;100.00
15634;BME280;14654;48.898;8.308;2023-07-02T05:26:35;99897.56;;;18.45;100.00
15634;BME280;14654;48.898;8.308;2023-07-02T05:29:01;99891.84;;;18.54;100.00
15634;BME280;14654;48.898;8.308;2023-07-02T05:31:27;99888.56;;;18.68;100.00
15634;BME280;14654;48.898;8.308;2023-07-02T05:33:53;99894.56;;;18.87;100.00
15634;BME280;14654;48.898;8.308;2023-07-02T05:36:19;99896.03;;;19.12;100.00
15634;BME280;14654;48.898;8.308;2023-07-02T05:38:44;99895.00;;;19.32;100.00
15634;BME280;14654;48.898;8.308;2023-07-02T05:41:09;99899.03;;;19.56;100.00
15634;BME280;14654;48.898;8.308;2023-07-02T05:43:34;99900.19;;;19.84;100.00
15634;BME280;14654;48.898;8.308;2023-07-02T05:46:00;99902.81;;;19.84;100.00
15634;BME280;14654;48.898;8.308;2023-07-02T05:48:26;99902.84;;;20.00;100.00
15634;BME280;14654;48.898;8.308;2023-07-02T05:50:52;99903.63;;;20.02;100.00
15634;BME280;14654;48.898;8.308;2023-07-02T05:53:17;99909.38;;;20.08;100.00
15634;BME280;14654;48.898;8.308;2023-07-02T05:55:42;99901.34;;;20.12;100.00
15634;BME280;14654;48.898;8.308;2023-07-02T05:58:08;99903.97;;;20.12;100.00
15634;BME280;14654;48.898;8.308;2023-07-02T06:00:33;99915.91;;;20.17;100.00
15634;BME280;14654;48.898;8.308;2023-07-02T06:02:58;99918.09;;;20.25;100.00
15634;BME280;14654;48.898;8.308;2023-07-02T06:05:24;99917.53;;;20.36;100.00
15634;BME280;14654;48.898;8.308;2023-07-02T06:07:49;99922.53;;;20.24;100.00
15634;BME280;14654;48.898;8.308;2023-07-02T06:10:14;99919.44;;;20.48;100.00
15634;BME280;14654;48.898;8.308;2023-07-02T06:12:40;99926.47;;;20.64;100.00
15634;BME280;14654;48.898;8.308;2023-07-02T06:15:05;99923.09;;;20.78;100.00
15634;BME280;14654;48.898;8.308;2023-07-02T06:17:31;99934.50;;;20.93;100.00
15634;BME280;14654;48.898;8.308;2023-07-02T06:19:57;99931.16;;;21.05;100.00
15634;BME280;14654;48.898;8.308;2023-07-02T06:22:22;99935.44;;;21.22;99.54
15634;BME280;14654;48.898;8.308;2023-07-02T06:24:48;99930.53;;;21.61;97.90
15634;BME280;14654;48.898;8.308;2023-07-02T06:27:13;99933.13;;;22.19;96.06
15634;BME280;14654;48.898;8.308;2023-07-02T06:29:39;99928.88;;;22.58;93.43
15634;BME280;14654;48.898;8.308;2023-07-02T06:32:04;99932.75;;;22.80;91.54
15634;BME280;14654;48.898;8.308;2023-07-02T06:34:30;99932.78;;;22.93;90.53
15634;BME280;14654;48.898;8.308;2023-07-02T06:36:55;99932.34;;;23.26;89.27
15634;BME280;14654;48.898;8.308;2023-07-02T06:39:20;99937.09;;;23.60;86.17
15634;BME280;14654;48.898;8.308;2023-07-02T06:41:46;99932.25;;;23.80;83.75
15634;BME280;14654;48.898;8.308;2023-07-02T06:44:11;99928.91;;;24.15;82.72
15634;BME280;14654;48.898;8.308;2023-07-02T06:46:37;99929.78;;;24.64;79.89
15634;BME280;14654;48.898;8.308;2023-07-02T06:49:02;99936.66;;;24.91;78.00
15634;BME280;14654;48.898;8.308;2023-07-02T06:51:28;99935.75;;;25.15;78.28
15634;BME280;14654;48.898;8.308;2023-07-02T06:53:54;99934.44;;;25.56;78.22
15634;BME280;14654;48.898;8.308;2023-07-02T06:56:19;99929.84;;;25.81;76.12
15634;BME280;14654;48.898;8.308;2023-07-02T06:58:45;99941.66;;;26.11;73.98
15634;BME280;14654;48.898;8.308;2023-07-02T07:01:10;99927.00;;;26.39;72.53
15634;BME280;14654;48.898;8.308;2023-07-02T07:03:36;99939.00;;;26.55;71.86
15634;BME280;14654;48.898;8.308;2023-07-02T07:06:01;99935.81;;;27.05;71.57
15634;BME280;14654;48.898;8.308;2023-07-02T07:08:27;99939.34;;;27.58;68.47
15634;BME280;14654;48.898;8.308;2023-07-02T07:10:52;99936.06;;;27.75;67.79
15634;BME280;14654;48.898;8.308;2023-07-02T07:13:18;99941.13;;;27.78;66.70
15634;BME280;14654;48.898;8.308;2023-07-02T07:15:43;99938.06;;;27.83;66.52
15634;BME280;14654;48.898;8.308;2023-07-02T07:18:09;99937.13;;;27.94;65.79
15634;BME280;14654;48.898;8.308;2023-07-02T07:20:34;99936.88;;;27.97;65.49
15634;BME280;14654;48.898;8.308;2023-07-02T07:23:01;99941.34;;;28.06;64.76
15634;BME280;14654;48.898;8.308;2023-07-02T07:25:26;99939.59;;;28.26;64.95
15634;BME280;14654;48.898;8.308;2023-07-02T07:27:52;99932.63;;;28.35;64.66
15634;BME280;14654;48.898;8.308;2023-07-02T07:30:17;99936.84;;;28.48;64.85
15634;BME280;14654;48.898;8.308;2023-07-02T07:32:50;99934.59;;;28.53;63.62
15634;BME280;14654;48.898;8.308;2023-07-02T07:35:17;99936.13;;;28.45;63.28
15634;BME280;14654;48.898;8.308;2023-07-02T07:37:42;99936.25;;;28.24;63.37
15634;BME280;14654;48.898;8.308;2023-07-02T07:40:08;99938.56;;;28.08;63.02
15634;BME280;14654;48.898;8.308;2023-07-02T07:42:33;99939.94;;;28.02;62.56
15634;BME280;14654;48.898;8.308;2023-07-02T07:44:58;99941.94;;;28.10;61.78
15634;BME280;14654;48.898;8.308;2023-07-02T07:47:24;99942.09;;;27.77;61.74
15634;BME280;14654;48.898;8.308;2023-07-02T07:49:49;99941.03;;;27.59;61.42
15634;BME280;14654;48.898;8.308;2023-07-02T07:52:14;99940.25;;;27.26;63.03
15634;BME280;14654;48.898;8.308;2023-07-02T07:54:40;99940.34;;;27.14;61.98
15634;BME280;14654;48.898;8.308;2023-07-02T07:57:06;99936.97;;;27.12;62.97
15634;BME280;14654;48.898;8.308;2023-07-02T07:59:31;99933.63;;;27.41;62.34
15634;BME280;14654;48.898;8.308;2023-07-02T08:01:57;99942.88;;;27.37;62.45
15634;BME280;14654;48.898;8.308;2023-07-02T08:04:22;99941.44;;;27.54;63.00
15634;BME280;14654;48.898;8.308;2023-07-02T08:06:47;99935.94;;;27.03;62.78
15634;BME280;14654;48.898;8.308;2023-07-02T08:09:12;99931.25;;;27.17;63.12
15634;BME280;14654;48.898;8.308;2023-07-02T08:11:38;99931.25;;;27.38;63.15
15634;BME280;14654;48.898;8.308;2023-07-02T08:14:03;99937.66;;;27.57;63.13
15634;BME280;14654;48.898;8.308;2023-07-02T08:16:29;99930.19;;;27.72;62.49
15634;BME280;14654;48.898;8.308;2023-07-02T08:18:54;99927.84;;;27.78;62.71
15634;BME280;14654;48.898;8.308;2023-07-02T08:21:19;99935.38;;;27.73;63.42
15634;BME280;14654;48.898;8.308;2023-07-02T08:23:45;99935.88;;;27.57;63.25
15634;BME280;14654;48.898;8.308;2023-07-02T08:26:10;99926.88;;;27.27;62.90
15634;BME280;14654;48.898;8.308;2023-07-02T08:28:36;99919.22;;;27.13;63.00
15634;BME280;14654;48.898;8.308;2023-07-02T08:31:03;99927.84;;;27.05;63.18
15634;BME280;14654;48.898;8.308;2023-07-02T08:33:29;99927.53;;;27.19;63.66
15634;BME280;14654;48.898;8.308;2023-07-02T08:35:54;99925.69;;;27.20;63.65
15634;BME280;14654;48.898;8.308;2023-07-02T08:38:19;99929.31;;;27.19;64.21
15634;BME280;14654;48.898;8.308;2023-07-02T08:40:45;99929.22;;;27.20;63.70
15634;BME280;14654;48.898;8.308;2023-07-02T08:43:10;99923.25;;;27.28;63.38
15634;BME280;14654;48.898;8.308;2023-07-02T08:45:36;99931.63;;;27.33;63.60
15634;BME280;14654;48.898;8.308;2023-07-02T08:48:01;99914.31;;;27.39;62.91
15634;BME280;14654;48.898;8.308;2023-07-02T08:50:27;99925.50;;;27.33;62.54
15634;BME280;14654;48.898;8.308;2023-07-02T08:52:53;99921.81;;;27.24;62.84
15634;BME280;14654;48.898;8.308;2023-07-02T08:55:19;99922.00;;;26.90;61.80
15634;BME280;14654;48.898;8.308;2023-07-02T08:57:52;99922.44;;;26.62;62.88
15634;BME280;14654;48.898;8.308;2023-07-02T09:00:18;99929.16;;;26.45;63.60
15634;BME280;14654;48.898;8.308;2023-07-02T09:02:44;99927.06;;;25.82;63.65
15634;BME280;14654;48.898;8.308;2023-07-02T09:05:10;99922.34;;;25.75;64.10
15634;BME280;14654;48.898;8.308;2023-07-02T09:07:55;99925.25;;;25.71;64.81
15634;BME280;14654;48.898;8.308;2023-07-02T09:10:30;99920.31;;;25.67;65.37
15634;BME280;14654;48.898;8.308;2023-07-02T09:13:06;99916.34;;;25.72;65.29
15634;BME280;14654;48.898;8.308;2023-07-02T09:15:41;99922.50;;;25.62;65.60
15634;BME280;14654;48.898;8.308;2023-07-02T09:18:22;99923.81;;;25.67;65.40
15634;BME280;14654;48.898;8.308;2023-07-02T09:20:54;99924.63;;;25.79;64.49
15634;BME280;14654;48.898;8.308;2023-07-02T09:23:19;99928.25;;;25.55;64.06
15634;BME280;14654;48.898;8.308;2023-07-02T09:25:45;99929.41;;;25.29;64.72
15634;BME280;14654;48.898;8.308;2023-07-02T09:28:19;99919.66;;;25.29;65.21
15634;BME280;14654;48.898;8.308;2023-07-02T09:30:57;99924.81;;;25.19;65.57
15634;BME280;14654;48.898;8.308;2023-07-02T09:33:24;99925.66;;;25.08;65.90
15634;BME280;14654;48.898;8.308;2023-07-02T09:35:50;99911.47;;;25.21;66.68
15634;BME280;14654;48.898;8.308;2023-07-02T09:38:16;99927.59;;;25.29;66.14
15634;BME280;14654;48.898;8.308;2023-07-02T09:40:46;99917.97;;;24.81;66.13
15634;BME280;14654;48.898;8.308;2023-07-02T09:43:14;99925.06;;;24.56;67.32
15634;BME280;14654;48.898;8.308;2023-07-02T09:45:44;99919.41;;;24.12;69.68
15634;BME280;14654;48.898;8.308;2023-07-02T09:48:13;99915.09;;;24.35;69.00
15634;BME280;14654;48.898;8.308;2023-07-02T09:50:43;99916.84;;;24.48;69.74
15634;BME280;14654;48.898;8.308;2023-07-02T09:53:09;99917.81;;;24.71;69.11
15634;BME280;14654;48.898;8.308;2023-07-02T09:55:36;99911.72;;;24.82;68.46
15634;BME280;14654;48.898;8.308;2023-07-02T09:58:01;99915.84;;;24.98;67.19
15634;BME280;14654;48.898;8.308;2023-07-02T10:00:27;99916.66;;;24.87;66.14
15634;BME280;14654;48.898;8.308;2023-07-02T10:02:52;99903.34;;;25.00;67.20
15634;BME280;14654;48.898;8.308;2023-07-02T10:05:28;99898.59;;;25.27;66.90
15634;BME280;14654;48.898;8.308;2023-07-02T10:07:58;99905.88;;;25.71;66.39
15634;BME280;14654;48.898;8.308;2023-07-02T10:10:28;99911.50;;;26.00;66.64
15634;BME280;14654;48.898;8.308;2023-07-02T10:12:54;99903.53;;;26.23;65.76
15634;BME280;14654;48.898;8.308;2023-07-02T10:15:29;99905.69;;;26.29;64.94
15634;BME280;14654;48.898;8.308;2023-07-02T10:17:59;99910.53;;;25.90;64.37
15634;BME280;14654;48.898;8.308;2023-07-02T10:22:58;99907.78;;;25.80;65.23
15634;BME280;14654;48.898;8.308;2023-07-02T10:25:28;99909.22;;;25.84;64.97
15634;BME280;14654;48.898;8.308;2023-07-02T10:27:54;99900.34;;;25.63;64.92
15634;BME280;14654;48.898;8.308;2023-07-02T10:30:30;99891.78;;;25.82;63.59
15634;BME280;14654;48.898;8.308;2023-07-02T10:33:09;99905.03;;;25.82;63.32
15634;BME280;14654;48.898;8.308;2023-07-02T10:35:35;99893.91;;;25.88;62.14
15634;BME280;14654;48.898;8.308;2023-07-02T10:38:00;99904.28;;;25.91;61.78
15634;BME280;14654;48.898;8.308;2023-07-02T10:40:26;99895.97;;;25.84;62.79
15634;BME280;14654;48.898;8.308;2023-07-02T10:42:52;99904.03;;;25.94;62.78
15634;BME280;14654;48.898;8.308;2023-07-02T10:45:18;99901.38;;;25.94;62.75
15634;BME280;14654;48.898;8.308;2023-07-02T10:47:45;99888.75;;;25.86;62.03
15634;BME280;14654;48.898;8.308;2023-07-02T10:50:20;99888.03;;;25.73;60.78
15634;BME280;14654;48.898;8.308;2023-07-02T10:52:47;99906.09;;;25.91;60.63
15634;BME280;14654;48.898;8.308;2023-07-02T10:55:20;99900.28;;;26.08;59.76
15634;BME280;14654;48.898;8.308;2023-07-02T10:57:46;99902.53;;;26.36;58.80
15634;BME280;14654;48.898;8.308;2023-07-02T11:00:12;99899.66;;;26.60;59.11
15634;BME280;14654;48.898;8.308;2023-07-02T11:02:38;99893.75;;;26.89;58.97
15634;BME280;14654;48.898;8.308;2023-07-02T11:05:07;99896.69;;;27.07;59.71
15634;BME280;14654;48.898;8.308;2023-07-02T11:07:44;99890.03;;;26.91;60.09
15634;BME280;14654;48.898;8.308;2023-07-02T11:10:10;99897.22;;;26.68;60.20
15634;BME280;14654;48.898;8.308;2023-07-02T11:12:41;99892.78;;;26.25;60.09
15634;BME280;14654;48.898;8.308;2023-07-02T11:15:13;99894.84;;;26.21;60.27
15634;BME280;14654;48.898;8.308;2023-07-02T11:17:39;99891.72;;;26.27;60.50
15634;BME280;14654;48.898;8.308;2023-07-02T11:20:10;99890.31;;;26.12;59.46
15634;BME280;14654;48.898;8.308;2023-07-02T11:22:37;99884.75;;;25.92;59.22
15634;BME280;14654;48.898;8.308;2023-07-02T11:25:29;99888.00;;;25.96;58.31
15634;BME280;14654;48.898;8.308;2023-07-02T11:28:04;99882.00;;;25.82;61.39
15634;BME280;14654;48.898;8.308;2023-07-02T11:30:29;99876.53;;;26.18;60.05
15634;BME280;14654;48.898;8.308;2023-07-02T11:32:55;99876.03;;;26.57;59.72
15634;BME280;14654;48.898;8.308;2023-07-02T11:35:22;99888.84;;;26.84;58.57
15634;BME280;14654;48.898;8.308;2023-07-02T11:37:48;99877.00;;;27.10;58.39
15634;BME280;14654;48.898;8.308;2023-07-02T11:40:16;99873.38;;;27.11;56.60
15634;BME280;14654;48.898;8.308;2023-07-02T11:42:42;99873.06;;;27.04;57.05
15634;BME280;14654;48.898;8.308;2023-07-02T11:45:09;99874.13;;;27.01;57.12
15634;BME280;14654;48.898;8.308;2023-07-02T11:47:34;99856.81;;;27.28;57.00
15634;BME280;14654;48.898;8.308;2023-07-02T11:50:00;99868.69;;;27.24;56.67
15634;BME280;14654;48.898;8.308;2023-07-02T11:52:25;99868.06;;;27.42;56.24
15634;BME280;14654;48.898;8.308;2023-07-02T11:54:51;99860.16;;;27.30;55.75
15634;BME280;14654;48.898;8.308;2023-07-02T11:57:16;99852.88;;;27.22;55.70
15634;BME280;14654;48.898;8.308;2023-07-02T11:59:42;99863.41;;;27.03;55.38
15634;BME280;14654;48.898;8.308;2023-07-02T12:02:07;99856.72;;;26.66;55.39
15634;BME280;14654;48.898;8.308;2023-07-02T12:04:32;99862.72;;;26.68;56.24
15634;BME280;14654;48.898;8.308;2023-07-02T12:06:59;99850.03;;;26.72;56.23
15634;BME280;14654;48.898;8.308;2023-07-02T12:09:26;99852.53;;;26.85;54.93
15634;BME280;14654;48.898;8.308;2023-07-02T12:11:52;99859.59;;;26.63;55.64
15634;BME280;14654;48.898;8.308;2023-07-02T12:14:18;99849.47;;;26.68;55.85
15634;BME280;14654;48.898;8.308;2023-07-02T12:16:43;99858.41;;;26.88;56.15
15634;BME280;14654;48.898;8.308;2023-07-02T12:19:08;99854.63;;;26.70;56.01
15634;BME280;14654;48.898;8.308;2023-07-02T12:21:33;99858.09;;;26.82;56.23
15634;BME280;14654;48.898;8.308;2023-07-02T12:23:59;99858.25;;;26.69;55.15
15634;BME280;14654;48.898;8.308;2023-07-02T12:26:24;99852.16;;;26.57;54.30
15634;BME280;14654;48.898;8.308;2023-07-02T12:28:49;99851.72;;;26.73;55.50
15634;BME280;14654;48.898;8.308;2023-07-02T12:31:15;99843.16;;;26.81;55.12
15634;BME280;14654;48.898;8.308;2023-07-02T12:33:40;99851.81;;;26.83;54.85
15634;BME280;14654;48.898;8.308;2023-07-02T12:36:05;99843.88;;;26.83;55.20
15634;BME280;14654;48.898;8.308;2023-07-02T12:38:31;99846.38;;;26.84;55.74
15634;BME280;14654;48.898;8.308;2023-07-02T12:40:56;99845.16;;;26.88;56.10
15634;BME280;14654;48.898;8.308;2023-07-02T12:43:21;99840.38;;;26.71;56.33
15634;BME280;14654;48.898;8.308;2023-07-02T12:45:47;99843.88;;;26.50;56.21
15634;BME280;14654;48.898;8.308;2023-07-02T12:48:12;99847.88;;;26.44;56.60
15634;BME280;14654;48.898;8.308;2023-07-02T12:50:38;99833.31;;;26.39;54.86
15634;BME280;14654;48.898;8.308;2023-07-02T12:53:03;99840.25;;;26.51;55.66